sensor_id;sensor_type;location;lat;lon;timestamp;P1;durP1;ratioP1;P2;durP2;ratioP2
83487;SDS011;73424;49.994;8.184;2024-02-15T00:01:30;13.15;;;9.32;;
83487;SDS011;73424;49.994;8.184;2024-02-15T00:03:56;16.23;;;9.25;;
83487;SDS011;73424;49.994;8.184;2024-02-15T00:06:22;11.45;;;8.40;;
83487;SDS011;73424;49.994;8.184;2024-02-15T00:08:48;10.05;;;8.40;;
83487;SDS011;73424;49.994;8.184;2024-02-15T00:11:14;9.07;;;6.65;;
83487;SDS011;73424;49.994;8.184;2024-02-15T00:13:40;13.73;;;9.00;;
83487;SDS011;73424;49.994;8.184;2024-02-15T00:16:06;11.25;;;7.35;;
83487;SDS011;73424;49.994;8.184;2024-02-15T00:18:31;13.25;;;9.20;;
83487;SDS011;73424;49.994;8.184;2024-02-15T00:20:58;14.05;;;9.57;;
83487;SDS011;73424;49.994;8.184;2024-02-15T00:23:25;12.90;;;8.98;;
83487;SDS011;73424;49.994;8.184;2024-02-15T00:25:50;14.50;;;10.03;;
83487;SDS011;73424;49.994;8.184;2024-02-15T00:28:15;15.53;;;10.60;;
83487;SDS011;73424;49.994;8.184;2024-02-15T00:30:40;17.63;;;9.83;;
83487;SDS011;73424;49.994;8.184;2024-02-15T00:33:06;12.55;;;9.30;;
83487;SDS011;73424;49.994;8.184;2024-02-15T00:35:32;16.25;;;9.75;;
83487;SDS011;73424;49.994;8.184;2024-02-15T00:37:58;15.77;;;10.77;;
83487;SDS011;73424;49.994;8.184;2024-02-15T00:40:23;16.90;;;12.48;;
83487;SDS011;73424;49.994;8.184;2024-02-15T00:42:48;14.37;;;10.20;;
83487;SDS011;73424;49.994;8.184;2024-02-15T00:45:14;12.77;;;9.00;;
83487;SDS011;73424;49.994;8.184;2024-02-15T00:47:39;12.63;;;8.70;;
83487;SDS011;73424;49.994;8.184;2024-02-15T00:50:07;10.98;;;8.75;;
83487;SDS011;73424;49.994;8.184;2024-02-15T00:52:33;11.95;;;7.75;;
83487;SDS011;73424;49.994;8.184;2024-02-15T00:54:59;13.00;;;9.35;;
83487;SDS011;73424;49.994;8.184;2024-02-15T00:57:25;13.00;;;8.32;;
83487;SDS011;73424;49.994;8.184;2024-02-15T00:59:50;12.57;;;8.47;;
83487;SDS011;73424;49.994;8.184;2024-02-15T01:02:17;12.82;;;8.00;;
83487;SDS011;73424;49.994;8.184;2024-02-15T01:04:43;12.68;;;9.50;;
83487;SDS011;73424;49.994;8.184;2024-02-15T01:07:10;14.32;;;8.98;;
83487;SDS011;73424;49.994;8.184;2024-02-15T01:09:36;11.57;;;9.15;;
83487;SDS011;73424;49.994;8.184;2024-02-15T01:12:02;10.90;;;8.43;;
83487;SDS011;73424;49.994;8.184;2024-02-15T01:14:30;11.45;;;8.15;;
83487;SDS011;73424;49.994;8.184;2024-02-15T01:16:57;10.75;;;8.45;;
83487;SDS011;73424;49.994;8.184;2024-02-15T01:19:22;11.32;;;8.23;;
83487;SDS011;73424;49.994;8.184;2024-02-15T01:21:47;11.15;;;8.45;;
83487;SDS011;73424;49.994;8.184;2024-02-15T01:24:13;12.70;;;8.88;;
83487;SDS011;73424;49.994;8.184;2024-02-15T01:26:39;18.58;;;9.20;;
83487;SDS011;73424;49.994;8.184;2024-02-15T01:29:05;11.82;;;7.97;;
83487;SDS011;73424;49.994;8.184;2024-02-15T01:31:30;9.63;;;6.80;;
83487;SDS011;73424;49.994;8.184;2024-02-15T01:33:55;10.50;;;7.47;;
83487;SDS011;73424;49.994;8.184;2024-02-15T01:36:22;11.35;;;8.50;;
83487;SDS011;73424;49.994;8.184;2024-02-15T01:38:47;9.60;;;7.25;;
83487;SDS011;73424;49.994;8.184;2024-02-15T01:41:12;9.57;;;7.40;;
83487;SDS011;73424;49.994;8.184;2024-02-15T01:43:37;9.40;;;7.00;;
83487;SDS011;73424;49.994;8.184;2024-02-15T01:46:09;10.32;;;8.05;;
83487;SDS011;73424;49.994;8.184;2024-02-15T01:48:39;13.43;;;8.65;;
83487;SDS011;73424;49.994;8.184;2024-02-15T01:51:07;10.57;;;7.53;;
83487;SDS011;73424;49.994;8.184;2024-02-15T01:53:33;9.55;;;7.00;;
83487;SDS011;73424;49.994;8.184;2024-02-15T01:55:59;9.57;;;7.65;;
83487;SDS011;73424;49.994;8.184;2024-02-15T01:58:28;10.38;;;7.32;;
83487;SDS011;73424;49.994;8.184;2024-02-15T02:00:57;9.35;;;7.65;;
83487;SDS011;73424;49.994;8.184;2024-02-15T02:03:25;9.82;;;6.80;;
83487;SDS011;73424;49.994;8.184;2024-02-15T02:05:50;8.00;;;6.68;;
83487;SDS011;73424;49.994;8.184;2024-02-15T02:08:16;11.77;;;7.72;;
83487;SDS011;73424;49.994;8.184;2024-02-15T02:10:41;9.27;;;8.18;;
83487;SDS011;73424;49.994;8.184;2024-02-15T02:13:07;11.13;;;7.25;;
83487;SDS011;73424;49.994;8.184;2024-02-15T02:15:34;10.93;;;7.90;;
83487;SDS011;73424;49.994;8.184;2024-02-15T02:18:02;9.05;;;7.07;;
83487;SDS011;73424;49.994;8.184;2024-02-15T02:20:30;8.85;;;7.07;;
83487;SDS011;73424;49.994;8.184;2024-02-15T02:22:58;10.70;;;6.63;;
83487;SDS011;73424;49.994;8.184;2024-02-15T02:25:32;10.27;;;7.72;;
83487;SDS011;73424;49.994;8.184;2024-02-15T02:27:58;8.63;;;5.88;;
83487;SDS011;73424;49.994;8.184;2024-02-15T02:30:25;8.38;;;7.22;;
83487;SDS011;73424;49.994;8.184;2024-02-15T02:32:54;8.05;;;6.60;;
83487;SDS011;73424;49.994;8.184;2024-02-15T02:35:20;9.23;;;7.50;;
83487;SDS011;73424;49.994;8.184;2024-02-15T02:37:45;9.73;;;7.15;;
83487;SDS011;73424;49.994;8.184;2024-02-15T02:40:11;8.27;;;7.00;;
83487;SDS011;73424;49.994;8.184;2024-02-15T02:42:46;10.60;;;7.00;;
83487;SDS011;73424;49.994;8.184;2024-02-15T02:45:11;10.45;;;7.40;;
83487;SDS011;73424;49.994;8.184;2024-02-15T02:47:36;15.38;;;9.43;;
83487;SDS011;73424;49.994;8.184;2024-02-15T02:50:02;12.70;;;7.80;;
83487;SDS011;73424;49.994;8.184;2024-02-15T02:52:28;11.10;;;6.50;;
83487;SDS011;73424;49.994;8.184;2024-02-15T02:54:53;9.73;;;6.93;;
83487;SDS011;73424;49.994;8.184;2024-02-15T02:57:18;11.30;;;7.83;;
83487;SDS011;73424;49.994;8.184;2024-02-15T02:59:44;8.47;;;6.20;;
83487;SDS011;73424;49.994;8.184;2024-02-15T03:02:10;11.07;;;8.30;;
83487;SDS011;73424;49.994;8.184;2024-02-15T03:04:35;12.57;;;7.82;;
83487;SDS011;73424;49.994;8.184;2024-02-15T03:07:00;16.27;;;6.95;;
83487;SDS011;73424;49.994;8.184;2024-02-15T03:09:26;9.48;;;7.22;;
83487;SDS011;73424;49.994;8.184;2024-02-15T03:11:54;9.52;;;7.65;;
83487;SDS011;73424;49.994;8.184;2024-02-15T03:14:20;9.52;;;7.55;;
83487;SDS011;73424;49.994;8.184;2024-02-15T03:16:47;12.45;;;7.78;;
83487;SDS011;73424;49.994;8.184;2024-02-15T03:19:12;9.70;;;7.67;;
83487;SDS011;73424;49.994;8.184;2024-02-15T03:21:38;11.32;;;8.82;;
83487;SDS011;73424;49.994;8.184;2024-02-15T03:24:03;10.13;;;7.68;;
83487;SDS011;73424;49.994;8.184;2024-02-15T03:26:29;11.55;;;7.07;;
83487;SDS011;73424;49.994;8.184;2024-02-15T03:29:03;10.18;;;7.43;;
83487;SDS011;73424;49.994;8.184;2024-02-15T03:31:29;10.52;;;7.65;;
83487;SDS011;73424;49.994;8.184;2024-02-15T03:33:56;11.30;;;7.07;;
83487;SDS011;73424;49.994;8.184;2024-02-15T03:36:22;10.48;;;6.78;;
83487;SDS011;73424;49.994;8.184;2024-02-15T03:38:48;10.23;;;7.70;;
83487;SDS011;73424;49.994;8.184;2024-02-15T03:41:13;10.30;;;7.20;;
83487;SDS011;73424;49.994;8.184;2024-02-15T03:43:39;11.20;;;8.13;;
83487;SDS011;73424;49.994;8.184;2024-02-15T03:46:04;12.10;;;7.82;;
83487;SDS011;73424;49.994;8.184;2024-02-15T03:48:32;10.85;;;8.30;;
83487;SDS011;73424;49.994;8.184;2024-02-15T03:50:57;10.85;;;7.70;;
83487;SDS011;73424;49.994;8.184;2024-02-15T03:53:23;11.80;;;9.23;;
83487;SDS011;73424;49.994;8.184;2024-02-15T03:55:49;11.50;;;7.97;;
83487;SDS011;73424;49.994;8.184;2024-02-15T03:58:18;11.38;;;9.02;;
83487;SDS011;73424;49.994;8.184;2024-02-15T04:00:43;12.83;;;8.67;;
83487;SDS011;73424;49.994;8.184;2024-02-15T04:03:09;12.88;;;8.35;;
83487;SDS011;73424;49.994;8.184;2024-02-15T04:05:34;12.20;;;8.10;;
83487;SDS011;73424;49.994;8.184;2024-02-15T04:08:00;12.50;;;8.57;;
83487;SDS011;73424;49.994;8.184;2024-02-15T04:10:27;14.25;;;8.65;;
83487;SDS011;73424;49.994;8.184;2024-02-15T04:12:53;18.02;;;8.55;;
83487;SDS011;73424;49.994;8.184;2024-02-15T04:15:18;14.57;;;9.13;;
83487;SDS011;73424;49.994;8.184;2024-02-15T04:17:44;13.75;;;9.07;;
83487;SDS011;73424;49.994;8.184;2024-02-15T04:20:10;13.48;;;8.45;;
83487;SDS011;73424;49.994;8.184;2024-02-15T04:22:36;15.57;;;10.02;;
83487;SDS011;73424;49.994;8.184;2024-02-15T04:25:06;13.57;;;9.68;;
83487;SDS011;73424;49.994;8.184;2024-02-15T04:27:34;13.02;;;8.70;;
83487;SDS011;73424;49.994;8.184;2024-02-15T04:30:00;13.35;;;10.77;;
83487;SDS011;73424;49.994;8.184;2024-02-15T04:32:25;14.18;;;8.95;;
83487;SDS011;73424;49.994;8.184;2024-02-15T04:34:51;15.55;;;8.85;;
83487;SDS011;73424;49.994;8.184;2024-02-15T04:37:17;14.75;;;11.07;;
83487;SDS011;73424;49.994;8.184;2024-02-15T04:39:43;12.15;;;8.52;;
83487;SDS011;73424;49.994;8.184;2024-02-15T04:42:08;9.83;;;6.30;;
83487;SDS011;73424;49.994;8.184;2024-02-15T04:44:39;11.98;;;8.75;;
83487;SDS011;73424;49.994;8.184;2024-02-15T04:47:04;11.80;;;8.55;;
83487;SDS011;73424;49.994;8.184;2024-02-15T04:49:30;13.40;;;9.55;;
83487;SDS011;73424;49.994;8.184;2024-02-15T04:51:55;11.88;;;9.60;;
83487;SDS011;73424;49.994;8.184;2024-02-15T04:54:22;12.27;;;7.82;;
83487;SDS011;73424;49.994;8.184;2024-02-15T04:56:48;12.05;;;8.23;;
83487;SDS011;73424;49.994;8.184;2024-02-15T04:59:17;13.90;;;8.73;;
83487;SDS011;73424;49.994;8.184;2024-02-15T05:01:42;12.47;;;9.30;;
83487;SDS011;73424;49.994;8.184;2024-02-15T05:04:08;14.73;;;8.40;;
83487;SDS011;73424;49.994;8.184;2024-02-15T05:06:34;16.58;;;9.10;;
83487;SDS011;73424;49.994;8.184;2024-02-15T05:09:02;11.40;;;8.23;;
83487;SDS011;73424;49.994;8.184;2024-02-15T05:11:32;13.90;;;10.10;;
83487;SDS011;73424;49.994;8.184;2024-02-15T05:14:04;19.33;;;11.38;;
83487;SDS011;73424;49.994;8.184;2024-02-15T05:16:34;14.52;;;9.68;;
83487;SDS011;73424;49.994;8.184;2024-02-15T05:18:59;14.25;;;9.52;;
83487;SDS011;73424;49.994;8.184;2024-02-15T05:21:24;14.07;;;9.02;;
83487;SDS011;73424;49.994;8.184;2024-02-15T05:23:50;15.20;;;8.67;;
83487;SDS011;73424;49.994;8.184;2024-02-15T05:26:17;11.45;;;8.27;;
83487;SDS011;73424;49.994;8.184;2024-02-15T05:28:48;12.20;;;8.77;;
83487;SDS011;73424;49.994;8.184;2024-02-15T05:31:14;11.38;;;8.00;;
83487;SDS011;73424;49.994;8.184;2024-02-15T05:33:42;12.68;;;8.98;;
83487;SDS011;73424;49.994;8.184;2024-02-15T05:36:15;12.50;;;7.75;;
83487;SDS011;73424;49.994;8.184;2024-02-15T05:38:50;14.02;;;8.35;;
83487;SDS011;73424;49.994;8.184;2024-02-15T05:41:17;12.70;;;8.55;;
83487;SDS011;73424;49.994;8.184;2024-02-15T05:43:44;11.55;;;8.55;;
83487;SDS011;73424;49.994;8.184;2024-02-15T05:46:09;10.17;;;8.00;;
83487;SDS011;73424;49.994;8.184;2024-02-15T05:48:36;11.57;;;9.18;;
83487;SDS011;73424;49.994;8.184;2024-02-15T05:51:03;11.90;;;9.38;;
83487;SDS011;73424;49.994;8.184;2024-02-15T05:53:29;11.80;;;8.77;;
83487;SDS011;73424;49.994;8.184;2024-02-15T05:55:55;13.75;;;9.65;;
83487;SDS011;73424;49.994;8.184;2024-02-15T05:58:23;12.35;;;9.18;;
83487;SDS011;73424;49.994;8.184;2024-02-15T06:00:49;12.55;;;9.65;;
83487;SDS011;73424;49.994;8.184;2024-02-15T06:03:18;12.18;;;8.82;;
83487;SDS011;73424;49.994;8.184;2024-02-15T06:05:47;11.27;;;7.97;;
83487;SDS011;73424;49.994;8.184;2024-02-15T06:08:13;9.15;;;7.82;;
83487;SDS011;73424;49.994;8.184;2024-02-15T06:10:38;12.27;;;8.05;;
83487;SDS011;73424;49.994;8.184;2024-02-15T06:13:04;8.73;;;7.80;;
83487;SDS011;73424;49.994;8.184;2024-02-15T06:15:30;12.80;;;9.10;;
83487;SDS011;73424;49.994;8.184;2024-02-15T06:17:56;10.60;;;7.80;;
83487;SDS011;73424;49.994;8.184;2024-02-15T06:20:22;9.68;;;6.95;;
83487;SDS011;73424;49.994;8.184;2024-02-15T06:22:50;11.27;;;7.80;;
83487;SDS011;73424;49.994;8.184;2024-02-15T06:25:16;12.93;;;7.85;;
83487;SDS011;73424;49.994;8.184;2024-02-15T06:27:45;13.20;;;9.63;;
83487;SDS011;73424;49.994;8.184;2024-02-15T06:30:12;14.38;;;8.65;;
83487;SDS011;73424;49.994;8.184;2024-02-15T06:32:59;10.85;;;8.20;;
83487;SDS011;73424;49.994;8.184;2024-02-15T06:35:43;13.40;;;8.98;;
83487;SDS011;73424;49.994;8.184;2024-02-15T06:38:27;12.30;;;8.90;;
83487;SDS011;73424;49.994;8.184;2024-02-15T06:41:12;15.32;;;9.60;;
83487;SDS011;73424;49.994;8.184;2024-02-15T06:43:37;17.83;;;10.00;;
83487;SDS011;73424;49.994;8.184;2024-02-15T06:46:06;13.68;;;9.38;;
83487;SDS011;73424;49.994;8.184;2024-02-15T06:48:32;15.57;;;9.73;;
83487;SDS011;73424;49.994;8.184;2024-02-15T06:50:57;14.43;;;9.17;;
83487;SDS011;73424;49.994;8.184;2024-02-15T06:53:23;13.40;;;8.40;;
83487;SDS011;73424;49.994;8.184;2024-02-15T06:55:49;14.82;;;9.65;;
83487;SDS011;73424;49.994;8.184;2024-02-15T06:58:15;14.98;;;9.93;;
83487;SDS011;73424;49.994;8.184;2024-02-15T07:00:41;13.57;;;9.43;;
83487;SDS011;73424;49.994;8.184;2024-02-15T07:03:07;14.05;;;10.35;;
83487;SDS011;73424;49.994;8.184;2024-02-15T07:05:33;12.90;;;10.23;;
83487;SDS011;73424;49.994;8.184;2024-02-15T07:07:58;14.70;;;10.82;;
83487;SDS011;73424;49.994;8.184;2024-02-15T07:10:24;15.40;;;10.60;;
83487;SDS011;73424;49.994;8.184;2024-02-15T07:12:49;17.85;;;9.68;;
83487;SDS011;73424;49.994;8.184;2024-02-15T07:15:15;17.88;;;10.25;;
83487;SDS011;73424;49.994;8.184;2024-02-15T07:17:41;14.48;;;9.70;;
83487;SDS011;73424;49.994;8.184;2024-02-15T07:20:07;14.40;;;10.85;;
83487;SDS011;73424;49.994;8.184;2024-02-15T07:22:35;14.13;;;9.98;;
83487;SDS011;73424;49.994;8.184;2024-02-15T07:25:02;15.57;;;10.07;;
83487;SDS011;73424;49.994;8.184;2024-02-15T07:27:28;12.15;;;9.60;;
83487;SDS011;73424;49.994;8.184;2024-02-15T07:29:53;17.10;;;11.50;;
83487;SDS011;73424;49.994;8.184;2024-02-15T07:32:19;13.05;;;9.80;;
83487;SDS011;73424;49.994;8.184;2024-02-15T07:34:45;15.57;;;10.55;;
83487;SDS011;73424;49.994;8.184;2024-02-15T07:37:12;16.45;;;10.85;;
83487;SDS011;73424;49.994;8.184;2024-02-15T07:39:37;16.30;;;9.98;;
83487;SDS011;73424;49.994;8.184;2024-02-15T07:42:03;20.50;;;11.60;;
83487;SDS011;73424;49.994;8.184;2024-02-15T07:44:29;14.00;;;10.05;;
83487;SDS011;73424;49.994;8.184;2024-02-15T07:46:57;13.38;;;10.13;;
83487;SDS011;73424;49.994;8.184;2024-02-15T07:49:25;13.10;;;10.35;;
83487;SDS011;73424;49.994;8.184;2024-02-15T07:51:51;24.73;;;12.20;;
83487;SDS011;73424;49.994;8.184;2024-02-15T07:54:18;19.33;;;12.90;;
83487;SDS011;73424;49.994;8.184;2024-02-15T07:56:46;16.98;;;11.27;;
83487;SDS011;73424;49.994;8.184;2024-02-15T07:59:13;14.73;;;10.43;;
83487;SDS011;73424;49.994;8.184;2024-02-15T08:01:42;17.58;;;11.52;;
83487;SDS011;73424;49.994;8.184;2024-02-15T08:04:15;15.95;;;10.25;;
83487;SDS011;73424;49.994;8.184;2024-02-15T08:06:42;15.57;;;10.73;;
83487;SDS011;73424;49.994;8.184;2024-02-15T08:09:08;13.70;;;10.10;;
83487;SDS011;73424;49.994;8.184;2024-02-15T08:14:05;18.25;;;10.55;;
83487;SDS011;73424;49.994;8.184;2024-02-15T08:16:33;16.38;;;12.05;;
83487;SDS011;73424;49.994;8.184;2024-02-15T08:18:59;18.73;;;11.88;;
83487;SDS011;73424;49.994;8.184;2024-02-15T08:21:32;18.63;;;11.57;;
83487;SDS011;73424;49.994;8.184;2024-02-15T08:23:59;17.48;;;10.82;;
83487;SDS011;73424;49.994;8.184;2024-02-15T08:26:26;15.77;;;11.27;;
83487;SDS011;73424;49.994;8.184;2024-02-15T08:28:51;15.38;;;11.50;;
83487;SDS011;73424;49.994;8.184;2024-02-15T08:31:17;15.38;;;11.63;;
83487;SDS011;73424;49.994;8.184;2024-02-15T08:33:44;18.85;;;11.95;;
83487;SDS011;73424;49.994;8.184;2024-02-15T08:36:10;15.65;;;9.77;;
83487;SDS011;73424;49.994;8.184;2024-02-15T08:38:36;15.65;;;10.55;;
83487;SDS011;73424;49.994;8.184;2024-02-15T08:41:06;16.17;;;11.05;;
83487;SDS011;73424;49.994;8.184;2024-02-15T08:43:33;12.82;;;10.23;;
83487;SDS011;73424;49.994;8.184;2024-02-15T08:45:59;11.85;;;8.57;;
83487;SDS011;73424;49.994;8.184;2024-02-15T08:48:24;13.63;;;10.48;;
83487;SDS011;73424;49.994;8.184;2024-02-15T08:50:53;12.52;;;9.60;;
83487;SDS011;73424;49.994;8.184;2024-02-15T08:53:18;12.88;;;8.52;;
83487;SDS011;73424;49.994;8.184;2024-02-15T08:55:47;13.57;;;8.95;;
83487;SDS011;73424;49.994;8.184;2024-02-15T08:58:13;13.07;;;8.55;;
83487;SDS011;73424;49.994;8.184;2024-02-15T09:00:38;11.63;;;8.55;;
83487;SDS011;73424;49.994;8.184;2024-02-15T09:03:09;10.55;;;8.25;;
83487;SDS011;73424;49.994;8.184;2024-02-15T09:05:34;12.57;;;8.77;;
83487;SDS011;73424;49.994;8.184;2024-02-15T09:07:59;13.57;;;8.47;;
83487;SDS011;73424;49.994;8.184;2024-02-15T09:10:25;10.13;;;7.73;;
83487;SDS011;73424;49.994;8.184;2024-02-15T09:12:51;10.63;;;7.93;;
83487;SDS011;73424;49.994;8.184;2024-02-15T09:15:16;13.07;;;11.00;;
83487;SDS011;73424;49.994;8.184;2024-02-15T09:17:43;11.38;;;8.80;;
83487;SDS011;73424;49.994;8.184;2024-02-15T09:20:10;11.60;;;7.75;;
83487;SDS011;73424;49.994;8.184;2024-02-15T09:22:47;13.48;;;8.07;;
83487;SDS011;73424;49.994;8.184;2024-02-15T09:25:13;10.65;;;8.95;;
83487;SDS011;73424;49.994;8.184;2024-02-15T09:27:39;11.60;;;8.48;;
83487;SDS011;73424;49.994;8.184;2024-02-15T09:30:05;11.57;;;8.43;;
83487;SDS011;73424;49.994;8.184;2024-02-15T09:32:34;10.90;;;7.85;;
83487;SDS011;73424;49.994;8.184;2024-02-15T09:35:00;9.90;;;7.65;;
83487;SDS011;73424;49.994;8.184;2024-02-15T09:37:25;9.10;;;6.63;;
83487;SDS011;73424;49.994;8.184;2024-02-15T09:39:53;10.40;;;7.25;;
83487;SDS011;73424;49.994;8.184;2024-02-15T09:42:18;8.57;;;6.90;;
83487;SDS011;73424;49.994;8.184;2024-02-15T09:44:43;9.00;;;7.13;;
83487;SDS011;73424;49.994;8.184;2024-02-15T09:47:09;10.13;;;6.90;;
83487;SDS011;73424;49.994;8.184;2024-02-15T09:49:38;11.07;;;7.35;;
83487;SDS011;73424;49.994;8.184;2024-02-15T09:52:06;10.65;;;6.95;;
83487;SDS011;73424;49.994;8.184;2024-02-15T09:54:36;8.80;;;7.22;;
83487;SDS011;73424;49.994;8.184;2024-02-15T09:57:04;9.30;;;7.35;;
83487;SDS011;73424;49.994;8.184;2024-02-15T09:59:30;8.85;;;6.60;;
83487;SDS011;73424;49.994;8.184;2024-02-15T10:01:58;10.32;;;6.20;;
83487;SDS011;73424;49.994;8.184;2024-02-15T10:04:24;10.02;;;6.97;;
83487;SDS011;73424;49.994;8.184;2024-02-15T10:06:50;9.32;;;5.60;;
83487;SDS011;73424;49.994;8.184;2024-02-15T10:09:26;12.75;;;5.60;;
83487;SDS011;73424;49.994;8.184;2024-02-15T10:12:02;9.70;;;5.55;;
83487;SDS011;73424;49.994;8.184;2024-02-15T10:14:31;9.35;;;5.00;;
83487;SDS011;73424;49.994;8.184;2024-02-15T10:16:59;8.27;;;5.57;;
83487;SDS011;73424;49.994;8.184;2024-02-15T10:19:31;8.52;;;5.43;;
83487;SDS011;73424;49.994;8.184;2024-02-15T10:22:05;8.30;;;5.55;;
83487;SDS011;73424;49.994;8.184;2024-02-15T10:24:31;7.57;;;4.55;;
83487;SDS011;73424;49.994;8.184;2024-02-15T10:27:04;7.63;;;5.28;;
83487;SDS011;73424;49.994;8.184;2024-02-15T10:29:31;7.80;;;5.55;;
83487;SDS011;73424;49.994;8.184;2024-02-15T10:31:57;8.30;;;6.35;;
83487;SDS011;73424;49.994;8.184;2024-02-15T10:34:27;9.77;;;5.28;;
83487;SDS011;73424;49.994;8.184;2024-02-15T10:39:38;8.60;;;4.70;;
83487;SDS011;73424;49.994;8.184;2024-02-15T10:42:06;8.05;;;4.93;;
83487;SDS011;73424;49.994;8.184;2024-02-15T10:44:32;6.40;;;4.80;;
83487;SDS011;73424;49.994;8.184;2024-02-15T10:46:59;8.68;;;5.40;;
83487;SDS011;73424;49.994;8.184;2024-02-15T10:49:25;8.15;;;5.70;;
83487;SDS011;73424;49.994;8.184;2024-02-15T10:51:59;10.57;;;5.40;;
83487;SDS011;73424;49.994;8.184;2024-02-15T10:57:11;7.28;;;5.25;;
83487;SDS011;73424;49.994;8.184;2024-02-15T10:59:39;6.82;;;4.82;;
83487;SDS011;73424;49.994;8.184;2024-02-15T11:04:55;10.25;;;4.60;;
83487;SDS011;73424;49.994;8.184;2024-02-15T11:07:28;8.15;;;4.82;;
83487;SDS011;73424;49.994;8.184;2024-02-15T11:09:55;7.70;;;4.18;;
83487;SDS011;73424;49.994;8.184;2024-02-15T11:12:24;7.60;;;4.60;;
83487;SDS011;73424;49.994;8.184;2024-02-15T11:14:53;9.52;;;4.25;;
83487;SDS011;73424;49.994;8.184;2024-02-15T11:18:04;7.40;;;3.75;;
83487;SDS011;73424;49.994;8.184;2024-02-15T11:20:07;6.18;;;3.20;;
83487;SDS011;73424;49.994;8.184;2024-02-15T11:22:35;6.55;;;4.32;;
83487;SDS011;73424;49.994;8.184;2024-02-15T11:25:04;5.72;;;3.40;;
83487;SDS011;73424;49.994;8.184;2024-02-15T11:27:41;7.07;;;4.10;;
83487;SDS011;73424;49.994;8.184;2024-02-15T11:30:07;6.97;;;3.92;;
83487;SDS011;73424;49.994;8.184;2024-02-15T11:35:18;4.88;;;3.40;;
83487;SDS011;73424;49.994;8.184;2024-02-15T11:42:44;6.65;;;3.42;;
83487;SDS011;73424;49.994;8.184;2024-02-15T11:45:11;6.55;;;3.65;;
83487;SDS011;73424;49.994;8.184;2024-02-15T11:47:37;7.30;;;3.67;;
83487;SDS011;73424;49.994;8.184;2024-02-15T11:50:08;5.45;;;3.38;;
83487;SDS011;73424;49.994;8.184;2024-02-15T11:52:39;5.80;;;3.05;;
83487;SDS011;73424;49.994;8.184;2024-02-15T11:55:08;7.75;;;3.78;;
83487;SDS011;73424;49.994;8.184;2024-02-15T11:57:38;5.93;;;3.22;;
83487;SDS011;73424;49.994;8.184;2024-02-15T12:00:25;5.68;;;3.35;;
83487;SDS011;73424;49.994;8.184;2024-02-15T12:03:09;4.50;;;2.53;;
83487;SDS011;73424;49.994;8.184;2024-02-15T12:05:53;5.97;;;3.08;;
83487;SDS011;73424;49.994;8.184;2024-02-15T12:08:38;6.43;;;3.90;;
83487;SDS011;73424;49.994;8.184;2024-02-15T12:11:21;7.15;;;3.00;;
83487;SDS011;73424;49.994;8.184;2024-02-15T12:14:05;7.78;;;3.50;;
83487;SDS011;73424;49.994;8.184;2024-02-15T12:16:59;6.78;;;3.42;;
83487;SDS011;73424;49.994;8.184;2024-02-15T12:19:57;6.22;;;3.28;;
83487;SDS011;73424;49.994;8.184;2024-02-15T12:22:33;7.97;;;4.82;;
83487;SDS011;73424;49.994;8.184;2024-02-15T12:25:05;7.78;;;3.53;;
83487;SDS011;73424;49.994;8.184;2024-02-15T12:27:45;6.15;;;4.15;;
83487;SDS011;73424;49.994;8.184;2024-02-15T12:30:14;4.57;;;2.95;;
83487;SDS011;73424;49.994;8.184;2024-02-15T12:32:45;5.50;;;3.40;;
83487;SDS011;73424;49.994;8.184;2024-02-15T12:35:12;7.20;;;3.47;;
83487;SDS011;73424;49.994;8.184;2024-02-15T12:40:32;6.60;;;2.58;;
83487;SDS011;73424;49.994;8.184;2024-02-15T12:43:04;6.38;;;3.30;;
83487;SDS011;73424;49.994;8.184;2024-02-15T12:45:30;5.47;;;3.17;;
83487;SDS011;73424;49.994;8.184;2024-02-15T12:47:57;6.80;;;2.95;;
83487;SDS011;73424;49.994;8.184;2024-02-15T12:50:28;4.95;;;3.00;;
83487;SDS011;73424;49.994;8.184;2024-02-15T12:52:55;5.88;;;3.35;;
83487;SDS011;73424;49.994;8.184;2024-02-15T12:55:24;5.15;;;3.28;;
83487;SDS011;73424;49.994;8.184;2024-02-15T12:57:51;6.70;;;3.85;;
83487;SDS011;73424;49.994;8.184;2024-02-15T13:00:19;6.78;;;3.35;;
83487;SDS011;73424;49.994;8.184;2024-02-15T13:02:49;6.32;;;4.18;;
83487;SDS011;73424;49.994;8.184;2024-02-15T13:05:16;5.30;;;3.78;;
83487;SDS011;73424;49.994;8.184;2024-02-15T13:07:47;4.97;;;3.22;;
83487;SDS011;73424;49.994;8.184;2024-02-15T13:10:13;4.72;;;3.30;;
83487;SDS011;73424;49.994;8.184;2024-02-15T13:12:40;5.53;;;3.63;;
83487;SDS011;73424;49.994;8.184;2024-02-15T13:15:06;7.38;;;4.85;;
83487;SDS011;73424;49.994;8.184;2024-02-15T13:17:36;5.47;;;3.88;;
83487;SDS011;73424;49.994;8.184;2024-02-15T13:20:02;5.03;;;3.30;;
83487;SDS011;73424;49.994;8.184;2024-02-15T13:22:32;3.78;;;3.35;;
83487;SDS011;73424;49.994;8.184;2024-02-15T13:24:58;9.05;;;3.33;;
83487;SDS011;73424;49.994;8.184;2024-02-15T13:27:25;7.57;;;3.38;;
83487;SDS011;73424;49.994;8.184;2024-02-15T13:29:51;5.22;;;3.47;;
83487;SDS011;73424;49.994;8.184;2024-02-15T13:32:16;8.18;;;3.00;;
83487;SDS011;73424;49.994;8.184;2024-02-15T13:34:45;4.55;;;2.85;;
83487;SDS011;73424;49.994;8.184;2024-02-15T13:37:11;4.43;;;2.45;;
83487;SDS011;73424;49.994;8.184;2024-02-15T13:39:38;4.43;;;2.10;;
83487;SDS011;73424;49.994;8.184;2024-02-15T13:42:08;4.43;;;2.28;;
83487;SDS011;73424;49.994;8.184;2024-02-15T13:44:33;4.20;;;2.15;;
83487;SDS011;73424;49.994;8.184;2024-02-15T13:46:58;6.47;;;2.70;;
83487;SDS011;73424;49.994;8.184;2024-02-15T13:49:25;4.70;;;2.45;;
83487;SDS011;73424;49.994;8.184;2024-02-15T13:51:51;6.07;;;2.70;;
83487;SDS011;73424;49.994;8.184;2024-02-15T13:54:17;4.18;;;3.05;;
83487;SDS011;73424;49.994;8.184;2024-02-15T13:56:42;5.50;;;2.38;;
83487;SDS011;73424;49.994;8.184;2024-02-15T13:59:07;3.63;;;1.90;;
83487;SDS011;73424;49.994;8.184;2024-02-15T14:01:33;6.45;;;1.98;;
83487;SDS011;73424;49.994;8.184;2024-02-15T14:03:59;4.93;;;1.83;;
83487;SDS011;73424;49.994;8.184;2024-02-15T14:06:24;4.38;;;2.28;;
83487;SDS011;73424;49.994;8.184;2024-02-15T14:08:49;3.22;;;1.55;;
83487;SDS011;73424;49.994;8.184;2024-02-15T14:11:15;5.20;;;3.20;;
83487;SDS011;73424;49.994;8.184;2024-02-15T14:13:42;3.38;;;2.03;;
83487;SDS011;73424;49.994;8.184;2024-02-15T14:16:07;4.03;;;1.88;;
83487;SDS011;73424;49.994;8.184;2024-02-15T14:18:33;5.05;;;1.88;;
83487;SDS011;73424;49.994;8.184;2024-02-15T14:20:59;2.65;;;1.63;;
83487;SDS011;73424;49.994;8.184;2024-02-15T14:23:25;4.10;;;1.67;;
83487;SDS011;73424;49.994;8.184;2024-02-15T14:25:52;2.42;;;1.65;;
83487;SDS011;73424;49.994;8.184;2024-02-15T14:28:18;8.60;;;2.13;;
83487;SDS011;73424;49.994;8.184;2024-02-15T14:30:43;3.78;;;1.75;;
83487;SDS011;73424;49.994;8.184;2024-02-15T14:33:27;4.68;;;1.55;;
83487;SDS011;73424;49.994;8.184;2024-02-15T14:35:52;7.28;;;2.25;;
83487;SDS011;73424;49.994;8.184;2024-02-15T14:38:21;3.63;;;1.92;;
83487;SDS011;73424;49.994;8.184;2024-02-15T14:40:48;4.78;;;1.90;;
83487;SDS011;73424;49.994;8.184;2024-02-15T14:43:22;3.42;;;1.77;;
83487;SDS011;73424;49.994;8.184;2024-02-15T14:45:50;3.45;;;1.77;;
83487;SDS011;73424;49.994;8.184;2024-02-15T14:48:16;3.08;;;1.88;;
83487;SDS011;73424;49.994;8.184;2024-02-15T14:50:43;3.92;;;1.60;;
83487;SDS011;73424;49.994;8.184;2024-02-15T14:53:12;3.47;;;1.77;;
83487;SDS011;73424;49.994;8.184;2024-02-15T14:55:38;4.22;;;1.63;;
83487;SDS011;73424;49.994;8.184;2024-02-15T14:58:04;3.47;;;1.75;;
83487;SDS011;73424;49.994;8.184;2024-02-15T15:00:32;3.60;;;0.93;;
83487;SDS011;73424;49.994;8.184;2024-02-15T15:02:58;4.30;;;1.83;;